sensor_id;sensor_type;location;lat;lon;timestamp;P1;durP1;ratioP1;P2;durP2;ratioP2
479;SDS011;226;48.606;9.096;2022-07-19T00:01:52;8.00;;;2.90;;
479;SDS011;226;48.606;9.096;2022-07-19T00:04:20;3.57;;;2.70;;
479;SDS011;226;48.606;9.096;2022-07-19T00:06:48;3.10;;;2.27;;
479;SDS011;226;48.606;9.096;2022-07-19T00:09:16;4.97;;;2.80;;
479;SDS011;226;48.606;9.096;2022-07-19T00:11:46;5.13;;;2.33;;
479;SDS011;226;48.606;9.096;2022-07-19T00:14:14;3.13;;;2.93;;
479;SDS011;226;48.606;9.096;2022-07-19T00:16:42;2.70;;;2.50;;
479;SDS011;226;48.606;9.096;2022-07-19T00:19:11;4.23;;;2.73;;
479;SDS011;226;48.606;9.096;2022-07-19T00:21:39;2.97;;;2.70;;
479;SDS011;226;48.606;9.096;2022-07-19T00:24:07;2.80;;;2.60;;
479;SDS011;226;48.606;9.096;2022-07-19T00:26:35;2.67;;;2.47;;
479;SDS011;226;48.606;9.096;2022-07-19T00:29:04;4.70;;;2.27;;
479;SDS011;226;48.606;9.096;2022-07-19T00:31:32;3.17;;;2.90;;
479;SDS011;226;48.606;9.096;2022-07-19T00:34:01;4.13;;;2.60;;
479;SDS011;226;48.606;9.096;2022-07-19T00:36:29;3.80;;;2.47;;
479;SDS011;226;48.606;9.096;2022-07-19T00:38:57;2.20;;;1.93;;
479;SDS011;226;48.606;9.096;2022-07-19T00:41:25;3.70;;;2.90;;
479;SDS011;226;48.606;9.096;2022-07-19T00:43:53;2.70;;;2.50;;
479;SDS011;226;48.606;9.096;2022-07-19T00:46:24;2.33;;;2.10;;
479;SDS011;226;48.606;9.096;2022-07-19T00:48:52;4.57;;;2.80;;
479;SDS011;226;48.606;9.096;2022-07-19T00:51:20;3.10;;;2.20;;
479;SDS011;226;48.606;9.096;2022-07-19T00:53:50;2.87;;;2.67;;
479;SDS011;226;48.606;9.096;2022-07-19T00:56:19;4.47;;;3.10;;
479;SDS011;226;48.606;9.096;2022-07-19T00:58:49;4.53;;;3.13;;
479;SDS011;226;48.606;9.096;2022-07-19T01:01:18;3.07;;;2.83;;
479;SDS011;226;48.606;9.096;2022-07-19T01:03:48;3.60;;;2.60;;
479;SDS011;226;48.606;9.096;2022-07-19T01:06:16;3.87;;;3.20;;
479;SDS011;226;48.606;9.096;2022-07-19T01:08:44;3.03;;;2.23;;
479;SDS011;226;48.606;9.096;2022-07-19T01:11:13;2.60;;;2.43;;
479;SDS011;226;48.606;9.096;2022-07-19T01:13:41;3.60;;;2.93;;
479;SDS011;226;48.606;9.096;2022-07-19T01:16:10;4.10;;;3.70;;
479;SDS011;226;48.606;9.096;2022-07-19T01:18:38;19.17;;;3.33;;
479;SDS011;226;48.606;9.096;2022-07-19T01:21:07;4.30;;;3.17;;
479;SDS011;226;48.606;9.096;2022-07-19T01:23:42;3.47;;;3.07;;
479;SDS011;226;48.606;9.096;2022-07-19T01:26:10;3.97;;;3.37;;
479;SDS011;226;48.606;9.096;2022-07-19T01:28:38;6.80;;;3.03;;
479;SDS011;226;48.606;9.096;2022-07-19T01:31:07;5.70;;;3.50;;
479;SDS011;226;48.606;9.096;2022-07-19T01:33:37;3.57;;;2.83;;
479;SDS011;226;48.606;9.096;2022-07-19T01:36:07;3.47;;;2.60;;
479;SDS011;226;48.606;9.096;2022-07-19T01:38:37;4.70;;;3.37;;
479;SDS011;226;48.606;9.096;2022-07-19T01:41:06;3.37;;;2.57;;
479;SDS011;226;48.606;9.096;2022-07-19T01:43:34;3.17;;;2.60;;
479;SDS011;226;48.606;9.096;2022-07-19T01:46:02;3.20;;;2.90;;
479;SDS011;226;48.606;9.096;2022-07-19T01:48:30;3.40;;;3.17;;
479;SDS011;226;48.606;9.096;2022-07-19T01:50:59;3.90;;;2.97;;
479;SDS011;226;48.606;9.096;2022-07-19T01:53:26;3.23;;;3.00;;
479;SDS011;226;48.606;9.096;2022-07-19T01:55:56;3.70;;;3.10;;
479;SDS011;226;48.606;9.096;2022-07-19T01:58:24;2.53;;;2.33;;
479;SDS011;226;48.606;9.096;2022-07-19T02:00:52;4.23;;;2.50;;
479;SDS011;226;48.606;9.096;2022-07-19T02:03:20;4.70;;;2.63;;
479;SDS011;226;48.606;9.096;2022-07-19T02:05:48;3.53;;;3.23;;
479;SDS011;226;48.606;9.096;2022-07-19T02:08:16;3.60;;;2.87;;
479;SDS011;226;48.606;9.096;2022-07-19T02:10:44;3.83;;;3.10;;
479;SDS011;226;48.606;9.096;2022-07-19T02:13:14;6.63;;;3.87;;
479;SDS011;226;48.606;9.096;2022-07-19T02:15:42;2.73;;;2.40;;
479;SDS011;226;48.606;9.096;2022-07-19T02:18:10;3.93;;;3.40;;
479;SDS011;226;48.606;9.096;2022-07-19T02:20:38;8.00;;;3.00;;
479;SDS011;226;48.606;9.096;2022-07-19T02:23:06;4.40;;;3.20;;
479;SDS011;226;48.606;9.096;2022-07-19T02:25:34;5.57;;;3.10;;
479;SDS011;226;48.606;9.096;2022-07-19T02:28:02;5.47;;;2.80;;
479;SDS011;226;48.606;9.096;2022-07-19T02:30:32;2.10;;;2.00;;
479;SDS011;226;48.606;9.096;2022-07-19T02:33:01;5.10;;;3.37;;
479;SDS011;226;48.606;9.096;2022-07-19T02:35:29;4.50;;;2.37;;
479;SDS011;226;48.606;9.096;2022-07-19T02:37:57;3.90;;;3.30;;
479;SDS011;226;48.606;9.096;2022-07-19T02:40:25;6.50;;;3.23;;
479;SDS011;226;48.606;9.096;2022-07-19T02:42:53;6.73;;;3.53;;
479;SDS011;226;48.606;9.096;2022-07-19T02:45:21;6.20;;;3.10;;
479;SDS011;226;48.606;9.096;2022-07-19T02:47:50;5.50;;;3.23;;
479;SDS011;226;48.606;9.096;2022-07-19T02:50:18;5.70;;;3.53;;
479;SDS011;226;48.606;9.096;2022-07-19T02:52:47;2.97;;;2.70;;
479;SDS011;226;48.606;9.096;2022-07-19T02:55:15;4.30;;;3.27;;
479;SDS011;226;48.606;9.096;2022-07-19T02:57:43;5.60;;;3.00;;
479;SDS011;226;48.606;9.096;2022-07-19T03:00:11;3.37;;;2.80;;
479;SDS011;226;48.606;9.096;2022-07-19T03:02:40;3.37;;;2.40;;
479;SDS011;226;48.606;9.096;2022-07-19T03:05:09;11.33;;;3.33;;
479;SDS011;226;48.606;9.096;2022-07-19T03:07:37;3.77;;;2.80;;
479;SDS011;226;48.606;9.096;2022-07-19T03:10:06;3.47;;;2.87;;
479;SDS011;226;48.606;9.096;2022-07-19T03:12:34;5.37;;;3.27;;
479;SDS011;226;48.606;9.096;2022-07-19T03:15:02;4.23;;;2.77;;
479;SDS011;226;48.606;9.096;2022-07-19T03:17:31;3.37;;;2.63;;
479;SDS011;226;48.606;9.096;2022-07-19T03:19:59;3.40;;;3.10;;
479;SDS011;226;48.606;9.096;2022-07-19T03:22:29;3.53;;;3.00;;
479;SDS011;226;48.606;9.096;2022-07-19T03:24:57;4.27;;;3.70;;
479;SDS011;226;48.606;9.096;2022-07-19T03:27:25;3.30;;;3.00;;
479;SDS011;226;48.606;9.096;2022-07-19T03:29:53;3.77;;;2.73;;
479;SDS011;226;48.606;9.096;2022-07-19T03:32:21;3.43;;;3.10;;
479;SDS011;226;48.606;9.096;2022-07-19T03:34:49;5.07;;;3.43;;
479;SDS011;226;48.606;9.096;2022-07-19T03:37:17;2.57;;;2.33;;
479;SDS011;226;48.606;9.096;2022-07-19T03:39:46;3.53;;;3.23;;
479;SDS011;226;48.606;9.096;2022-07-19T03:42:14;3.37;;;3.07;;
479;SDS011;226;48.606;9.096;2022-07-19T03:44:42;3.73;;;2.90;;
479;SDS011;226;48.606;9.096;2022-07-19T03:47:10;5.67;;;3.53;;
479;SDS011;226;48.606;9.096;2022-07-19T03:49:39;3.40;;;3.10;;
479;SDS011;226;48.606;9.096;2022-07-19T03:52:07;3.03;;;2.53;;
479;SDS011;226;48.606;9.096;2022-07-19T03:54:43;2.87;;;2.53;;
479;SDS011;226;48.606;9.096;2022-07-19T03:57:12;3.77;;;2.53;;
479;SDS011;226;48.606;9.096;2022-07-19T03:59:40;5.23;;;3.37;;
479;SDS011;226;48.606;9.096;2022-07-19T04:02:08;3.50;;;3.03;;
479;SDS011;226;48.606;9.096;2022-07-19T04:04:36;6.80;;;3.23;;
479;SDS011;226;48.606;9.096;2022-07-19T04:07:04;6.03;;;3.20;;
479;SDS011;226;48.606;9.096;2022-07-19T04:09:32;4.73;;;3.60;;
479;SDS011;226;48.606;9.096;2022-07-19T04:12:00;5.07;;;3.07;;
479;SDS011;226;48.606;9.096;2022-07-19T04:14:30;2.80;;;2.60;;
479;SDS011;226;48.606;9.096;2022-07-19T04:16:58;3.27;;;2.93;;
479;SDS011;226;48.606;9.096;2022-07-19T04:19:26;6.07;;;3.60;;
479;SDS011;226;48.606;9.096;2022-07-19T04:21:54;6.47;;;3.47;;
479;SDS011;226;48.606;9.096;2022-07-19T04:24:22;2.87;;;2.70;;
479;SDS011;226;48.606;9.096;2022-07-19T04:26:50;5.60;;;2.87;;
479;SDS011;226;48.606;9.096;2022-07-19T04:29:18;4.03;;;3.10;;
479;SDS011;226;48.606;9.096;2022-07-19T04:31:48;4.10;;;3.07;;
479;SDS011;226;48.606;9.096;2022-07-19T04:34:16;6.13;;;3.80;;
479;SDS011;226;48.606;9.096;2022-07-19T04:36:44;2.80;;;2.60;;
479;SDS011;226;48.606;9.096;2022-07-19T04:39:12;4.40;;;3.53;;
479;SDS011;226;48.606;9.096;2022-07-19T04:41:40;4.17;;;3.20;;
479;SDS011;226;48.606;9.096;2022-07-19T04:44:08;4.23;;;2.83;;
479;SDS011;226;48.606;9.096;2022-07-19T04:46:36;3.80;;;3.17;;
479;SDS011;226;48.606;9.096;2022-07-19T04:49:13;3.23;;;2.93;;
479;SDS011;226;48.606;9.096;2022-07-19T04:51:41;2.87;;;2.60;;
479;SDS011;226;48.606;9.096;2022-07-19T04:54:09;3.00;;;2.67;;
479;SDS011;226;48.606;9.096;2022-07-19T04:56:37;3.50;;;2.73;;
479;SDS011;226;48.606;9.096;2022-07-19T04:59:05;6.30;;;3.50;;
479;SDS011;226;48.606;9.096;2022-07-19T05:01:34;4.00;;;3.47;;
479;SDS011;226;48.606;9.096;2022-07-19T05:04:03;4.07;;;3.40;;
479;SDS011;226;48.606;9.096;2022-07-19T05:06:32;4.47;;;2.90;;
479;SDS011;226;48.606;9.096;2022-07-19T05:09:00;4.43;;;2.90;;
479;SDS011;226;48.606;9.096;2022-07-19T05:11:30;6.60;;;3.63;;
479;SDS011;226;48.606;9.096;2022-07-19T05:13:58;4.67;;;4.10;;
479;SDS011;226;48.606;9.096;2022-07-19T05:16:26;5.30;;;3.77;;
479;SDS011;226;48.606;9.096;2022-07-19T05:18:54;3.67;;;3.30;;
479;SDS011;226;48.606;9.096;2022-07-19T05:21:22;12.50;;;3.50;;
479;SDS011;226;48.606;9.096;2022-07-19T05:23:52;3.43;;;3.13;;
479;SDS011;226;48.606;9.096;2022-07-19T05:26:20;4.50;;;3.50;;
479;SDS011;226;48.606;9.096;2022-07-19T05:28:48;6.30;;;4.00;;
479;SDS011;226;48.606;9.096;2022-07-19T05:31:16;3.33;;;3.00;;
479;SDS011;226;48.606;9.096;2022-07-19T05:33:44;5.80;;;3.77;;
479;SDS011;226;48.606;9.096;2022-07-19T05:36:12;3.70;;;3.40;;
479;SDS011;226;48.606;9.096;2022-07-19T05:38:40;3.90;;;3.50;;
479;SDS011;226;48.606;9.096;2022-07-19T05:41:10;3.07;;;2.87;;
479;SDS011;226;48.606;9.096;2022-07-19T05:43:38;3.10;;;2.73;;
479;SDS011;226;48.606;9.096;2022-07-19T05:46:06;4.93;;;3.37;;
479;SDS011;226;48.606;9.096;2022-07-19T05:48:35;3.77;;;3.37;;
479;SDS011;226;48.606;9.096;2022-07-19T05:51:03;4.63;;;3.40;;
479;SDS011;226;48.606;9.096;2022-07-19T05:53:32;5.43;;;3.10;;
479;SDS011;226;48.606;9.096;2022-07-19T05:56:02;4.10;;;3.27;;
479;SDS011;226;48.606;9.096;2022-07-19T05:58:32;3.10;;;2.90;;
479;SDS011;226;48.606;9.096;2022-07-19T06:01:01;4.80;;;3.27;;
479;SDS011;226;48.606;9.096;2022-07-19T06:03:50;6.17;;;2.77;;
479;SDS011;226;48.606;9.096;2022-07-19T06:06:24;4.80;;;3.17;;
479;SDS011;226;48.606;9.096;2022-07-19T06:08:54;3.43;;;3.07;;
479;SDS011;226;48.606;9.096;2022-07-19T06:11:23;5.27;;;2.77;;
479;SDS011;226;48.606;9.096;2022-07-19T06:13:53;5.07;;;2.80;;
479;SDS011;226;48.606;9.096;2022-07-19T06:16:22;4.13;;;3.57;;
479;SDS011;226;48.606;9.096;2022-07-19T06:18:51;4.33;;;3.57;;
479;SDS011;226;48.606;9.096;2022-07-19T06:21:19;4.67;;;2.73;;
479;SDS011;226;48.606;9.096;2022-07-19T06:23:48;3.80;;;3.30;;
479;SDS011;226;48.606;9.096;2022-07-19T06:26:16;4.73;;;3.20;;
479;SDS011;226;48.606;9.096;2022-07-19T06:28:45;5.30;;;3.33;;
479;SDS011;226;48.606;9.096;2022-07-19T06:31:14;4.13;;;3.20;;
479;SDS011;226;48.606;9.096;2022-07-19T06:33:44;7.13;;;2.63;;
479;SDS011;226;48.606;9.096;2022-07-19T06:36:13;3.73;;;3.33;;
479;SDS011;226;48.606;9.096;2022-07-19T06:38:42;6.30;;;3.00;;
479;SDS011;226;48.606;9.096;2022-07-19T06:41:10;4.43;;;3.53;;
479;SDS011;226;48.606;9.096;2022-07-19T06:43:39;5.90;;;3.70;;
479;SDS011;226;48.606;9.096;2022-07-19T06:46:08;4.63;;;3.13;;
479;SDS011;226;48.606;9.096;2022-07-19T06:48:38;6.23;;;3.30;;
479;SDS011;226;48.606;9.096;2022-07-19T06:51:06;2.63;;;2.40;;
479;SDS011;226;48.606;9.096;2022-07-19T06:53:35;2.63;;;2.40;;
479;SDS011;226;48.606;9.096;2022-07-19T06:56:04;7.07;;;3.30;;
479;SDS011;226;48.606;9.096;2022-07-19T06:58:32;2.80;;;2.60;;
479;SDS011;226;48.606;9.096;2022-07-19T07:01:07;3.83;;;2.90;;
479;SDS011;226;48.606;9.096;2022-07-19T07:03:35;3.67;;;3.37;;
479;SDS011;226;48.606;9.096;2022-07-19T07:06:05;2.87;;;2.67;;
479;SDS011;226;48.606;9.096;2022-07-19T07:08:33;2.60;;;2.03;;
479;SDS011;226;48.606;9.096;2022-07-19T07:11:01;3.03;;;2.73;;
479;SDS011;226;48.606;9.096;2022-07-19T07:13:30;2.17;;;1.93;;
479;SDS011;226;48.606;9.096;2022-07-19T07:15:58;2.93;;;2.47;;
479;SDS011;226;48.606;9.096;2022-07-19T07:18:26;3.30;;;2.97;;
479;SDS011;226;48.606;9.096;2022-07-19T07:20:55;1.93;;;1.83;;
479;SDS011;226;48.606;9.096;2022-07-19T07:23:23;2.63;;;2.43;;
479;SDS011;226;48.606;9.096;2022-07-19T07:25:52;2.73;;;2.30;;
479;SDS011;226;48.606;9.096;2022-07-19T07:28:20;6.13;;;2.90;;
479;SDS011;226;48.606;9.096;2022-07-19T07:30:51;2.53;;;2.43;;
479;SDS011;226;48.606;9.096;2022-07-19T07:33:20;2.53;;;2.33;;
479;SDS011;226;48.606;9.096;2022-07-19T07:35:48;2.00;;;1.80;;
479;SDS011;226;48.606;9.096;2022-07-19T07:38:17;1.83;;;1.73;;
479;SDS011;226;48.606;9.096;2022-07-19T07:40:46;2.57;;;2.00;;
479;SDS011;226;48.606;9.096;2022-07-19T07:43:14;1.70;;;1.60;;
479;SDS011;226;48.606;9.096;2022-07-19T07:45:42;2.63;;;2.13;;
479;SDS011;226;48.606;9.096;2022-07-19T07:48:10;1.97;;;1.87;;
479;SDS011;226;48.606;9.096;2022-07-19T07:50:38;2.10;;;2.00;;
479;SDS011;226;48.606;9.096;2022-07-19T07:53:06;2.20;;;1.50;;
479;SDS011;226;48.606;9.096;2022-07-19T07:55:36;1.93;;;1.80;;
479;SDS011;226;48.606;9.096;2022-07-19T07:58:06;2.00;;;1.63;;
479;SDS011;226;48.606;9.096;2022-07-19T08:00:34;2.30;;;1.83;;
479;SDS011;226;48.606;9.096;2022-07-19T08:03:02;1.70;;;1.60;;
479;SDS011;226;48.606;9.096;2022-07-19T08:05:31;2.53;;;1.93;;
479;SDS011;226;48.606;9.096;2022-07-19T08:07:59;1.70;;;1.60;;
479;SDS011;226;48.606;9.096;2022-07-19T08:10:28;3.20;;;1.87;;
479;SDS011;226;48.606;9.096;2022-07-19T08:13:00;6.30;;;2.20;;
479;SDS011;226;48.606;9.096;2022-07-19T08:15:33;2.03;;;1.93;;
479;SDS011;226;48.606;9.096;2022-07-19T08:18:02;3.50;;;1.70;;
479;SDS011;226;48.606;9.096;2022-07-19T08:20:30;2.20;;;2.00;;
479;SDS011;226;48.606;9.096;2022-07-19T08:22:58;2.43;;;1.70;;
479;SDS011;226;48.606;9.096;2022-07-19T08:25:27;2.00;;;1.90;;
479;SDS011;226;48.606;9.096;2022-07-19T08:27:55;1.60;;;1.50;;
479;SDS011;226;48.606;9.096;2022-07-19T08:30:25;1.50;;;1.40;;
479;SDS011;226;48.606;9.096;2022-07-19T08:33:13;1.73;;;1.63;;
479;SDS011;226;48.606;9.096;2022-07-19T08:35:41;2.60;;;1.60;;
479;SDS011;226;48.606;9.096;2022-07-19T08:38:09;2.50;;;1.70;;
479;SDS011;226;48.606;9.096;2022-07-19T08:40:37;2.87;;;1.90;;
479;SDS011;226;48.606;9.096;2022-07-19T08:43:09;2.53;;;2.33;;
479;SDS011;226;48.606;9.096;2022-07-19T08:45:40;2.30;;;2.10;;
479;SDS011;226;48.606;9.096;2022-07-19T08:48:08;1.60;;;1.50;;
479;SDS011;226;48.606;9.096;2022-07-19T08:50:37;2.70;;;2.50;;
479;SDS011;226;48.606;9.096;2022-07-19T08:53:07;3.47;;;1.67;;
479;SDS011;226;48.606;9.096;2022-07-19T08:55:36;1.33;;;1.23;;
479;SDS011;226;48.606;9.096;2022-07-19T08:58:04;1.53;;;1.43;;
479;SDS011;226;48.606;9.096;2022-07-19T09:00:33;4.53;;;2.20;;
479;SDS011;226;48.606;9.096;2022-07-19T09:03:03;2.57;;;2.10;;
479;SDS011;226;48.606;9.096;2022-07-19T09:05:33;3.23;;;1.90;;
479;SDS011;226;48.606;9.096;2022-07-19T09:08:03;1.80;;;1.70;;
479;SDS011;226;48.606;9.096;2022-07-19T09:10:34;8.07;;;2.00;;
479;SDS011;226;48.606;9.096;2022-07-19T09:13:05;2.10;;;1.93;;
479;SDS011;226;48.606;9.096;2022-07-19T09:15:38;1.70;;;1.60;;
479;SDS011;226;48.606;9.096;2022-07-19T09:18:19;1.60;;;1.50;;
479;SDS011;226;48.606;9.096;2022-07-19T09:20:49;2.50;;;2.10;;
479;SDS011;226;48.606;9.096;2022-07-19T09:23:19;2.10;;;1.80;;
479;SDS011;226;48.606;9.096;2022-07-19T09:25:48;2.90;;;2.10;;
479;SDS011;226;48.606;9.096;2022-07-19T09:28:19;2.03;;;1.80;;
479;SDS011;226;48.606;9.096;2022-07-19T09:30:48;2.23;;;1.97;;
479;SDS011;226;48.606;9.096;2022-07-19T09:33:20;3.67;;;2.17;;
479;SDS011;226;48.606;9.096;2022-07-19T09:35:50;2.57;;;1.73;;
479;SDS011;226;48.606;9.096;2022-07-19T09:38:28;3.07;;;1.77;;
479;SDS011;226;48.606;9.096;2022-07-19T09:41:07;3.10;;;2.20;;
479;SDS011;226;48.606;9.096;2022-07-19T09:43:48;2.13;;;2.03;;
479;SDS011;226;48.606;9.096;2022-07-19T09:46:28;1.80;;;1.70;;
479;SDS011;226;48.606;9.096;2022-07-19T09:49:06;2.63;;;1.80;;
479;SDS011;226;48.606;9.096;2022-07-19T09:51:37;1.70;;;1.60;;
479;SDS011;226;48.606;9.096;2022-07-19T09:54:07;1.53;;;1.43;;
479;SDS011;226;48.606;9.096;2022-07-19T09:56:37;9.17;;;1.40;;
479;SDS011;226;48.606;9.096;2022-07-19T09:59:07;2.30;;;1.90;;
479;SDS011;226;48.606;9.096;2022-07-19T10:01:35;2.20;;;1.77;;
479;SDS011;226;48.606;9.096;2022-07-19T10:04:07;2.10;;;1.60;;
479;SDS011;226;48.606;9.096;2022-07-19T10:06:36;2.60;;;2.40;;
479;SDS011;226;48.606;9.096;2022-07-19T10:09:06;2.30;;;2.07;;
479;SDS011;226;48.606;9.096;2022-07-19T10:11:35;1.97;;;1.87;;
479;SDS011;226;48.606;9.096;2022-07-19T10:14:04;1.80;;;1.67;;
479;SDS011;226;48.606;9.096;2022-07-19T10:16:36;1.80;;;1.53;;
479;SDS011;226;48.606;9.096;2022-07-19T10:19:37;1.73;;;1.63;;
479;SDS011;226;48.606;9.096;2022-07-19T10:22:09;3.93;;;2.10;;
479;SDS011;226;48.606;9.096;2022-07-19T10:24:42;1.20;;;1.10;;
479;SDS011;226;48.606;9.096;2022-07-19T10:27:11;1.77;;;1.67;;
479;SDS011;226;48.606;9.096;2022-07-19T10:29:40;4.63;;;1.57;;
479;SDS011;226;48.606;9.096;2022-07-19T10:32:08;2.10;;;1.40;;
479;SDS011;226;48.606;9.096;2022-07-19T10:34:40;1.83;;;1.47;;
479;SDS011;226;48.606;9.096;2022-07-19T10:37:09;3.03;;;1.30;;
479;SDS011;226;48.606;9.096;2022-07-19T10:39:37;4.07;;;2.13;;
479;SDS011;226;48.606;9.096;2022-07-19T10:42:16;1.40;;;1.30;;
479;SDS011;226;48.606;9.096;2022-07-19T10:45:08;1.83;;;1.40;;
479;SDS011;226;48.606;9.096;2022-07-19T10:47:59;2.30;;;1.67;;
479;SDS011;226;48.606;9.096;2022-07-19T10:50:43;2.27;;;1.83;;
479;SDS011;226;48.606;9.096;2022-07-19T10:56:25;4.10;;;1.70;;
479;SDS011;226;48.606;9.096;2022-07-19T10:58:55;4.30;;;1.60;;
479;SDS011;226;48.606;9.096;2022-07-19T11:01:26;1.60;;;1.50;;
479;SDS011;226;48.606;9.096;2022-07-19T11:07:12;4.93;;;1.77;;
479;SDS011;226;48.606;9.096;2022-07-19T11:09:42;3.13;;;1.63;;
479;SDS011;226;48.606;9.096;2022-07-19T11:15:10;1.80;;;1.50;;
479;SDS011;226;48.606;9.096;2022-07-19T11:17:53;2.40;;;1.63;;
479;SDS011;226;48.606;9.096;2022-07-19T11:20:23;1.60;;;1.43;;
479;SDS011;226;48.606;9.096;2022-07-19T11:22:53;2.90;;;1.60;;
479;SDS011;226;48.606;9.096;2022-07-19T11:25:23;1.40;;;1.30;;
479;SDS011;226;48.606;9.096;2022-07-19T11:27:53;3.07;;;2.83;;
479;SDS011;226;48.606;9.096;2022-07-19T11:30:22;2.50;;;2.30;;
479;SDS011;226;48.606;9.096;2022-07-19T11:32:51;1.77;;;1.67;;
479;SDS011;226;48.606;9.096;2022-07-19T11:35:20;1.80;;;1.70;;
479;SDS011;226;48.606;9.096;2022-07-19T11:37:51;1.77;;;1.67;;
479;SDS011;226;48.606;9.096;2022-07-19T11:40:21;2.13;;;1.80;;
479;SDS011;226;48.606;9.096;2022-07-19T11:42:51;2.77;;;2.17;;
479;SDS011;226;48.606;9.096;2022-07-19T11:45:43;1.70;;;1.60;;
479;SDS011;226;48.606;9.096;2022-07-19T11:48:22;3.40;;;1.80;;
479;SDS011;226;48.606;9.096;2022-07-19T11:51:02;1.60;;;1.50;;
479;SDS011;226;48.606;9.096;2022-07-19T11:53:32;2.30;;;1.87;;
479;SDS011;226;48.606;9.096;2022-07-19T11:56:04;1.97;;;1.87;;
479;SDS011;226;48.606;9.096;2022-07-19T11:58:42;4.93;;;1.60;;
479;SDS011;226;48.606;9.096;2022-07-19T12:01:12;2.63;;;2.43;;
479;SDS011;226;48.606;9.096;2022-07-19T12:03:40;2.50;;;1.57;;
479;SDS011;226;48.606;9.096;2022-07-19T12:06:19;2.57;;;2.13;;
479;SDS011;226;48.606;9.096;2022-07-19T12:09:02;1.80;;;1.70;;
479;SDS011;226;48.606;9.096;2022-07-19T12:11:38;4.43;;;1.87;;
479;SDS011;226;48.606;9.096;2022-07-19T12:14:17;1.77;;;1.67;;
479;SDS011;226;48.606;9.096;2022-07-19T12:16:47;2.90;;;1.87;;
479;SDS011;226;48.606;9.096;2022-07-19T12:19:15;4.83;;;1.70;;
479;SDS011;226;48.606;9.096;2022-07-19T12:21:46;2.00;;;1.80;;
479;SDS011;226;48.606;9.096;2022-07-19T12:24:15;2.50;;;2.30;;
479;SDS011;226;48.606;9.096;2022-07-19T12:26:57;2.73;;;1.90;;
479;SDS011;226;48.606;9.096;2022-07-19T12:29:28;1.90;;;1.70;;
479;SDS011;226;48.606;9.096;2022-07-19T12:31:58;4.60;;;2.60;;
479;SDS011;226;48.606;9.096;2022-07-19T12:34:28;2.23;;;1.93;;
479;SDS011;226;48.606;9.096;2022-07-19T12:36:57;2.20;;;2.00;;
479;SDS011;226;48.606;9.096;2022-07-19T12:39:26;1.87;;;1.77;;
479;SDS011;226;48.606;9.096;2022-07-19T12:42:01;2.73;;;1.53;;
479;SDS011;226;48.606;9.096;2022-07-19T12:44:32;2.00;;;1.90;;
479;SDS011;226;48.606;9.096;2022-07-19T12:47:01;4.10;;;1.83;;
479;SDS011;226;48.606;9.096;2022-07-19T12:49:50;2.30;;;1.87;;
479;SDS011;226;48.606;9.096;2022-07-19T12:52:30;5.33;;;3.87;;
479;SDS011;226;48.606;9.096;2022-07-19T12:54:58;2.33;;;1.83;;
479;SDS011;226;48.606;9.096;2022-07-19T12:57:28;2.00;;;1.73;;
479;SDS011;226;48.606;9.096;2022-07-19T12:59:56;2.43;;;2.20;;
479;SDS011;226;48.606;9.096;2022-07-19T13:02:24;1.90;;;1.80;;
479;SDS011;226;48.606;9.096;2022-07-19T13:04:52;2.97;;;2.60;;
479;SDS011;226;48.606;9.096;2022-07-19T13:07:20;2.00;;;1.87;;
479;SDS011;226;48.606;9.096;2022-07-19T13:09:49;1.97;;;1.37;;
479;SDS011;226;48.606;9.096;2022-07-19T13:12:17;1.73;;;1.60;;
479;SDS011;226;48.606;9.096;2022-07-19T13:14:46;2.07;;;1.63;;
479;SDS011;226;48.606;9.096;2022-07-19T13:17:15;3.63;;;1.73;;
479;SDS011;226;48.606;9.096;2022-07-19T13:19:44;1.90;;;1.47;;
479;SDS011;226;48.606;9.096;2022-07-19T13:22:12;1.60;;;1.43;;
479;SDS011;226;48.606;9.096;2022-07-19T13:24:40;1.80;;;1.70;;
479;SDS011;226;48.606;9.096;2022-07-19T13:27:28;2.20;;;2.00;;
479;SDS011;226;48.606;9.096;2022-07-19T13:29:58;2.60;;;2.13;;
479;SDS011;226;48.606;9.096;2022-07-19T13:32:26;2.47;;;2.00;;
479;SDS011;226;48.606;9.096;2022-07-19T13:34:55;1.93;;;1.73;;
479;SDS011;226;48.606;9.096;2022-07-19T13:37:23;2.30;;;2.20;;
479;SDS011;226;48.606;9.096;2022-07-19T13:39:52;2.67;;;1.40;;
479;SDS011;226;48.606;9.096;2022-07-19T13:42:20;1.60;;;1.50;;
479;SDS011;226;48.606;9.096;2022-07-19T13:44:49;1.63;;;1.50;;
479;SDS011;226;48.606;9.096;2022-07-19T13:47:18;2.23;;;1.53;;
479;SDS011;226;48.606;9.096;2022-07-19T13:49:47;1.63;;;1.53;;
479;SDS011;226;48.606;9.096;2022-07-19T13:52:15;1.60;;;1.50;;
479;SDS011;226;48.606;9.096;2022-07-19T13:54:44;1.63;;;1.53;;
479;SDS011;226;48.606;9.096;2022-07-19T13:57:12;1.63;;;1.53;;
479;SDS011;226;48.606;9.096;2022-07-19T13:59:40;2.73;;;1.90;;
479;SDS011;226;48.606;9.096;2022-07-19T14:02:14;2.50;;;1.93;;
479;SDS011;226;48.606;9.096;2022-07-19T14:04:46;1.70;;;1.60;;
479;SDS011;226;48.606;9.096;2022-07-19T14:07:21;1.20;;;1.20;;
479;SDS011;226;48.606;9.096;2022-07-19T14:09:49;7.90;;;1.60;;
479;SDS011;226;48.606;9.096;2022-07-19T14:12:17;1.70;;;1.60;;
479;SDS011;226;48.606;9.096;2022-07-19T14:14:47;1.20;;;1.10;;
479;SDS011;226;48.606;9.096;2022-07-19T14:17:16;1.67;;;1.57;;
479;SDS011;226;48.606;9.096;2022-07-19T14:19:45;2.13;;;1.97;;
479;SDS011;226;48.606;9.096;2022-07-19T14:22:13;3.73;;;1.40;;
479;SDS011;226;48.606;9.096;2022-07-19T14:24:42;2.30;;;1.70;;
479;SDS011;226;48.606;9.096;2022-07-19T14:27:10;1.70;;;1.37;;
479;SDS011;226;48.606;9.096;2022-07-19T14:29:38;2.70;;;1.67;;
479;SDS011;226;48.606;9.096;2022-07-19T14:32:06;1.73;;;1.63;;
479;SDS011;226;48.606;9.096;2022-07-19T14:34:35;3.50;;;2.40;;
479;SDS011;226;48.606;9.096;2022-07-19T14:37:05;1.70;;;1.60;;
479;SDS011;226;48.606;9.096;2022-07-19T14:39:34;1.30;;;1.30;;
479;SDS011;226;48.606;9.096;2022-07-19T14:42:02;1.77;;;1.20;;
479;SDS011;226;48.606;9.096;2022-07-19T14:44:32;1.63;;;1.50;;
479;SDS011;226;48.606;9.096;2022-07-19T14:47:00;2.67;;;1.20;;
479;SDS011;226;48.606;9.096;2022-07-19T14:49:29;4.93;;;1.70;;
479;SDS011;226;48.606;9.096;2022-07-19T14:51:57;1.48;;;1.38;;
479;SDS011;226;48.606;9.096;2022-07-19T14:54:26;1.20;;;1.10;;
479;SDS011;226;48.606;9.096;2022-07-19T14:56:55;8.97;;;1.67;;
479;SDS011;226;48.606;9.096;2022-07-19T14:59:25;1.50;;;1.40;;
479;SDS011;226;48.606;9.096;2022-07-19T15:01:53;2.50;;;1.27;;
479;SDS011;226;48.606;9.096;2022-07-19T15:04:21;1.73;;;1.63;;
479;SDS011;226;48.606;9.096;2022-07-19T15:06:49;2.10;;;1.60;;
479;SDS011;226;48.606;9.096;2022-07-19T15:09:17;3.73;;;1.80;;
479;SDS011;226;48.606;9.096;2022-07-19T15:11:47;1.40;;;1.30;;
479;SDS011;226;48.606;9.096;2022-07-19T15:14:15;1.85;;;1.48;;
479;SDS011;226;48.606;9.096;2022-07-19T15:16:43;1.10;;;1.10;;
479;SDS011;226;48.606;9.096;2022-07-19T15:19:11;1.60;;;1.50;;
479;SDS011;226;48.606;9.096;2022-07-19T15:21:39;2.45;;;1.50;;
479;SDS011;226;48.606;9.096;2022-07-19T15:24:08;9.43;;;1.95;;
479;SDS011;226;48.606;9.096;2022-07-19T15:26:36;2.63;;;1.27;;
479;SDS011;226;48.606;9.096;2022-07-19T15:29:05;2.10;;;1.30;;
479;SDS011;226;48.606;9.096;2022-07-19T15:31:33;1.73;;;1.63;;
479;SDS011;226;48.606;9.096;2022-07-19T15:34:01;1.30;;;1.20;;
479;SDS011;226;48.606;9.096;2022-07-19T15:36:31;1.27;;;1.20;;
479;SDS011;226;48.606;9.096;2022-07-19T15:38:59;1.52;;;1.40;;
479;SDS011;226;48.606;9.096;2022-07-19T15:41:27;1.77;;;1.67;;
479;SDS011;226;48.606;9.096;2022-07-19T15:43:56;1.50;;;1.40;;
479;SDS011;226;48.606;9.096;2022-07-19T15:46:27;1.27;;;1.25;;
479;SDS011;226;48.606;9.096;2022-07-19T15:48:57;5.65;;;1.50;;
479;SDS011;226;48.606;9.096;2022-07-19T15:51:25;5.77;;;1.90;;
479;SDS011;226;48.606;9.096;2022-07-19T15:53:54;1.40;;;1.30;;
479;SDS011;226;48.606;9.096;2022-07-19T15:56:23;1.40;;;1.30;;
479;SDS011;226;48.606;9.096;2022-07-19T15:58:51;1.50;;;1.40;;
479;SDS011;226;48.606;9.096;2022-07-19T16:01:20;1.43;;;1.33;;
479;SDS011;226;48.606;9.096;2022-07-19T16:03:50;1.60;;;1.50;;
479;SDS011;226;48.606;9.096;2022-07-19T16:06:18;1.23;;;1.23;;
479;SDS011;226;48.606;9.096;2022-07-19T16:08:46;1.20;;;1.10;;
479;SDS011;226;48.606;9.096;2022-07-19T16:11:15;1.20;;;1.10;;